createdAt,value
2023-01-27T00:00:51.634Z,20.40
2023-01-27T00:03:19.090Z,20.77
2023-01-27T00:05:46.577Z,17.17
2023-01-27T00:08:14.724Z,17.02
2023-01-27T00:10:41.833Z,19.05
2023-01-27T00:13:27.530Z,21.52
2023-01-27T00:15:55.459Z,19.43
2023-01-27T00:18:23.568Z,16.45
2023-01-27T00:21:09.618Z,18.70
2023-01-27T00:23:55.146Z,18.98
2023-01-27T00:26:22.234Z,18.80
2023-01-27T00:28:49.338Z,18.07
2023-01-27T00:31:36.465Z,16.92
2023-01-27T00:34:10.767Z,17.45
2023-01-27T00:36:39.304Z,18.38
2023-01-27T00:39:07.270Z,15.45
2023-01-27T00:41:34.986Z,17.93
2023-01-27T00:44:02.484Z,20.50
2023-01-27T00:46:29.797Z,19.20
2023-01-27T00:48:57.033Z,21.20
2023-01-27T00:51:24.471Z,23.02
2023-01-27T00:53:51.578Z,26.33
2023-01-27T00:56:19.232Z,25.45
2023-01-27T00:58:46.522Z,23.90
2023-01-27T01:01:15.871Z,26.95
2023-01-27T01:03:43.726Z,21.63
2023-01-27T01:06:13.213Z,23.17
2023-01-27T01:08:40.756Z,21.50
2023-01-27T01:11:11.478Z,21.48
2023-01-27T01:13:38.828Z,22.90
2023-01-27T01:16:07.706Z,27.83
2023-01-27T01:18:35.155Z,21.40
2023-01-27T01:21:02.762Z,22.20
2023-01-27T01:23:29.848Z,24.33
2023-01-27T01:25:57.430Z,26.70
2023-01-27T01:28:25.085Z,25.65
2023-01-27T01:30:53.072Z,23.43
2023-01-27T01:33:20.531Z,17.92
2023-01-27T01:35:47.598Z,20.52
2023-01-27T01:38:15.030Z,22.15
2023-01-27T01:40:42.763Z,21.65
2023-01-27T01:43:15.853Z,25.17
2023-01-27T01:45:51.519Z,25.38
2023-01-27T01:48:23.639Z,27.25
2023-01-27T01:50:55.267Z,21.83
2023-01-27T01:53:29.364Z,21.02
2023-01-27T01:56:05.299Z,22.13
2023-01-27T01:58:32.407Z,24.80
2023-01-27T02:00:59.637Z,23.33
2023-01-27T02:03:28.784Z,24.55
2023-01-27T02:05:56.194Z,20.48
2023-01-27T02:08:29.948Z,25.27
2023-01-27T02:10:57.722Z,25.83
2023-01-27T02:13:24.794Z,20.55
2023-01-27T02:15:53.360Z,24.45
2023-01-27T02:18:20.802Z,23.73
2023-01-27T02:20:50.491Z,22.07
2023-01-27T02:23:45.208Z,19.75
2023-01-27T02:26:32.193Z,19.92
2023-01-27T02:29:03.079Z,21.40
2023-01-27T02:31:30.416Z,23.33
2023-01-27T02:34:14.516Z,18.83
2023-01-27T02:36:53.514Z,18.67
2023-01-27T02:39:22.771Z,17.27
2023-01-27T02:41:52.223Z,16.80
2023-01-27T02:44:19.338Z,15.88
2023-01-27T02:46:46.415Z,14.27
2023-01-27T02:49:14.575Z,17.48
2023-01-27T02:51:41.926Z,21.48
2023-01-27T02:54:09.029Z,19.15
2023-01-27T02:56:36.148Z,17.00
2023-01-27T02:59:03.172Z,17.80
2023-01-27T03:01:32.894Z,20.17
2023-01-27T03:04:00.142Z,15.32
2023-01-27T03:06:27.204Z,17.40
2023-01-27T03:08:54.240Z,16.40
2023-01-27T03:11:39.661Z,16.77
2023-01-27T03:14:07.802Z,17.40
2023-01-27T03:16:53.535Z,18.90
2023-01-27T03:19:21.150Z,22.98
2023-01-27T03:21:51.070Z,22.42
2023-01-27T03:24:18.583Z,23.53
2023-01-27T03:26:45.748Z,18.90
2023-01-27T03:29:31.749Z,23.77
2023-01-27T03:31:58.916Z,19.17
2023-01-27T03:34:26.010Z,20.98
2023-01-27T03:37:11.524Z,17.90
2023-01-27T03:39:57.708Z,20.63
2023-01-27T03:42:43.033Z,18.65
2023-01-27T03:45:29.027Z,17.60
2023-01-27T03:47:56.061Z,17.30
2023-01-27T03:50:37.503Z,15.57
2023-01-27T03:53:05.598Z,12.82
2023-01-27T03:55:35.777Z,19.45
2023-01-27T03:58:19.138Z,20.98
2023-01-27T04:00:49.218Z,25.35
2023-01-27T04:03:34.706Z,21.17
2023-01-27T04:06:24.977Z,19.98
2023-01-27T04:08:52.057Z,18.63
2023-01-27T04:11:37.507Z,21.15
2023-01-27T04:14:05.818Z,21.60
2023-01-27T04:16:34.425Z,21.67
2023-01-27T04:19:01.596Z,24.33
2023-01-27T04:21:28.914Z,25.73
2023-01-27T04:23:56.393Z,28.73
2023-01-27T04:26:23.791Z,37.75
2023-01-27T04:28:51.140Z,31.87
2023-01-27T04:31:18.566Z,33.78
2023-01-27T04:33:45.699Z,36.45
2023-01-27T04:36:12.958Z,27.17
2023-01-27T04:38:40.003Z,34.97
2023-01-27T04:41:07.153Z,28.77
2023-01-27T04:43:35.487Z,31.63
2023-01-27T04:46:02.762Z,30.13
2023-01-27T04:48:29.920Z,35.50
2023-01-27T04:50:57.046Z,33.47
2023-01-27T04:53:24.118Z,29.07
2023-01-27T04:56:02.333Z,30.38
2023-01-27T04:58:29.432Z,28.88
2023-01-27T05:00:56.532Z,31.52
2023-01-27T05:03:23.852Z,29.98
2023-01-27T05:05:51.621Z,25.87
2023-01-27T05:08:18.686Z,37.65
2023-01-27T05:10:45.734Z,37.75
2023-01-27T05:13:12.810Z,33.15
2023-01-27T05:15:39.916Z,36.97
2023-01-27T05:18:07.005Z,38.43
2023-01-27T05:20:34.039Z,39.25
2023-01-27T05:23:19.846Z,31.70
2023-01-27T05:25:46.993Z,30.00
2023-01-27T05:28:14.055Z,32.42
2023-01-27T05:30:41.152Z,31.63
2023-01-27T05:33:08.423Z,32.08
2023-01-27T05:35:35.591Z,35.72
2023-01-27T05:38:02.862Z,31.13
2023-01-27T05:40:30.531Z,28.83
2023-01-27T05:42:57.573Z,26.87
2023-01-27T05:45:24.647Z,31.17
2023-01-27T05:47:51.837Z,32.30
2023-01-27T05:50:19.135Z,27.35
2023-01-27T05:52:46.377Z,31.13
2023-01-27T05:55:14.050Z,28.83
2023-01-27T05:57:41.281Z,26.80
2023-01-27T06:00:08.972Z,26.40
2023-01-27T06:02:36.073Z,32.72
2023-01-27T06:05:03.285Z,30.48
2023-01-27T06:07:30.412Z,37.87
2023-01-27T06:09:57.471Z,29.80
2023-01-27T06:12:24.500Z,33.88
2023-01-27T06:14:51.576Z,27.60
2023-01-27T06:17:18.657Z,30.77
2023-01-27T06:19:45.689Z,38.67
2023-01-27T06:22:12.726Z,32.05
2023-01-27T06:24:39.774Z,35.67
2023-01-27T06:27:06.833Z,30.05
2023-01-27T06:29:33.979Z,36.28
2023-01-27T06:32:01.212Z,31.47
2023-01-27T06:34:28.314Z,25.35
2023-01-27T06:36:55.363Z,30.83
2023-01-27T06:39:22.422Z,33.90
2023-01-27T06:41:49.937Z,26.20
2023-01-27T06:44:17.209Z,29.37
2023-01-27T06:46:44.366Z,33.40
2023-01-27T06:49:11.460Z,29.45
2023-01-27T06:51:38.572Z,33.00
2023-01-27T06:54:05.666Z,31.25
2023-01-27T06:56:32.713Z,34.80
2023-01-27T06:58:59.780Z,38.92
2023-01-27T07:01:27.636Z,35.63
2023-01-27T07:03:54.753Z,31.00
2023-01-27T07:06:21.876Z,29.63
2023-01-27T07:08:50.517Z,40.37
2023-01-27T07:11:17.800Z,38.53
2023-01-27T07:13:44.861Z,44.08
2023-01-27T07:16:11.931Z,35.58
2023-01-27T07:18:39.031Z,34.63
2023-01-27T07:21:06.137Z,41.73
2023-01-27T07:23:33.284Z,37.13
2023-01-27T07:26:09.834Z,36.60
2023-01-27T07:28:42.817Z,31.58
2023-01-27T07:31:10.060Z,39.55
2023-01-27T07:33:37.395Z,38.40
2023-01-27T07:36:04.531Z,32.22
2023-01-27T07:38:31.715Z,33.35
2023-01-27T07:40:58.761Z,34.30
2023-01-27T07:43:26.304Z,31.75
2023-01-27T07:45:56.679Z,28.43
2023-01-27T07:48:23.900Z,23.88
2023-01-27T07:50:51.181Z,25.48
2023-01-27T07:53:18.222Z,26.80
2023-01-27T07:55:45.298Z,24.73
2023-01-27T07:58:12.388Z,22.77
2023-01-27T08:00:39.567Z,24.80
2023-01-27T08:03:06.767Z,17.08
2023-01-27T08:05:34.753Z,14.60
2023-01-27T08:08:03.952Z,16.98
2023-01-27T08:10:31.486Z,16.00
2023-01-27T08:12:58.579Z,18.38
2023-01-27T08:15:25.653Z,19.77
2023-01-27T08:17:56.217Z,20.42
2023-01-27T08:20:25.325Z,16.13
2023-01-27T08:22:52.610Z,14.30
2023-01-27T08:25:19.983Z,14.88
2023-01-27T08:27:50.658Z,16.02
2023-01-27T08:30:18.539Z,12.30
2023-01-27T08:32:45.613Z,14.60
2023-01-27T08:35:12.668Z,17.23
2023-01-27T08:37:39.685Z,14.40
2023-01-27T08:40:07.186Z,13.48
2023-01-27T08:42:34.244Z,15.82
2023-01-27T08:45:01.335Z,11.95
2023-01-27T08:47:28.412Z,11.57
2023-01-27T08:49:55.507Z,12.65
2023-01-27T08:52:23.404Z,12.30
2023-01-27T08:54:50.483Z,14.95
2023-01-27T08:57:17.983Z,12.90
2023-01-27T08:59:46.165Z,15.60
2023-01-27T09:02:13.556Z,13.90
2023-01-27T09:04:43.850Z,17.33
2023-01-27T09:07:11.444Z,15.50
2023-01-27T09:09:38.520Z,14.02
2023-01-27T09:12:05.614Z,13.27
2023-01-27T09:14:32.670Z,12.82
2023-01-27T09:16:59.788Z,11.48
2023-01-27T09:19:26.895Z,13.23
2023-01-27T09:21:54.012Z,15.35
2023-01-27T09:24:21.153Z,13.53
2023-01-27T09:26:48.578Z,13.52
2023-01-27T09:29:15.645Z,13.57
2023-01-27T09:31:42.943Z,15.45
2023-01-27T09:34:10.085Z,16.02
2023-01-27T09:36:41.410Z,17.33
2023-01-27T09:39:09.291Z,18.00
2023-01-27T09:41:57.479Z,14.20
2023-01-27T09:44:46.329Z,17.73
2023-01-27T09:47:40.777Z,16.80
2023-01-27T09:50:24.468Z,15.00
2023-01-27T09:53:23.285Z,17.85
2023-01-27T09:55:59.608Z,16.02
2023-01-27T09:58:56.913Z,13.82
2023-01-27T10:02:14.919Z,13.50
2023-01-27T10:05:02.524Z,11.67
2023-01-27T10:07:35.945Z,13.55
2023-01-27T10:10:12.325Z,15.45
2023-01-27T10:13:00.998Z,15.25
2023-01-27T10:15:46.471Z,12.98
2023-01-27T10:18:28.800Z,12.00
2023-01-27T10:21:06.119Z,11.45
2023-01-27T10:23:51.890Z,13.90
2023-01-27T10:26:24.467Z,19.02
2023-01-27T10:28:57.797Z,18.00
2023-01-27T10:31:34.799Z,15.47
2023-01-27T10:34:13.583Z,15.25
2023-01-27T10:36:47.068Z,12.50
2023-01-27T10:39:24.148Z,17.25
2023-01-27T10:42:02.050Z,14.60
2023-01-27T10:44:37.859Z,15.03
2023-01-27T10:47:23.381Z,14.77
2023-01-27T10:49:57.002Z,13.32
2023-01-27T10:52:36.103Z,16.38
2023-01-27T10:55:13.341Z,15.98
2023-01-27T10:57:45.781Z,15.77
2023-01-27T11:00:46.229Z,14.98
2023-01-27T11:03:17.336Z,14.07
2023-01-27T11:05:49.494Z,15.40
2023-01-27T11:08:19.666Z,15.00
2023-01-27T11:11:07.332Z,14.50
2023-01-27T11:13:34.445Z,15.82
2023-01-27T11:16:03.015Z,16.83
2023-01-27T11:18:32.656Z,19.20
2023-01-27T11:21:03.764Z,17.60
2023-01-27T11:23:34.102Z,16.50
2023-01-27T11:26:26.412Z,16.27
2023-01-27T11:29:00.773Z,19.48
2023-01-27T11:31:51.698Z,20.13
2023-01-27T11:34:25.044Z,17.83
2023-01-27T11:36:52.530Z,17.90
2023-01-27T11:39:20.003Z,20.70
2023-01-27T11:41:57.712Z,19.85
2023-01-27T11:44:28.494Z,16.52
2023-01-27T11:46:56.090Z,20.38
2023-01-27T11:49:28.291Z,18.80
2023-01-27T11:52:33.847Z,21.75
2023-01-27T11:55:15.295Z,13.30
2023-01-27T11:57:44.849Z,17.25
2023-01-27T12:00:20.752Z,17.23
2023-01-27T12:02:55.417Z,15.23
2023-01-27T12:05:30.139Z,15.45
2023-01-27T12:08:05.112Z,16.35
2023-01-27T12:10:35.066Z,18.80
2023-01-27T12:13:09.954Z,16.08
2023-01-27T12:15:38.021Z,20.33
2023-01-27T12:18:15.199Z,15.02
2023-01-27T12:20:45.361Z,15.80
2023-01-27T12:23:24.879Z,16.02
2023-01-27T12:25:57.962Z,19.10
2023-01-27T12:28:42.302Z,14.30
2023-01-27T12:31:18.420Z,16.63
2023-01-27T12:33:56.740Z,16.83
2023-01-27T12:36:24.099Z,14.60
2023-01-27T12:38:51.921Z,13.30
2023-01-27T12:41:27.979Z,13.90
2023-01-27T12:44:00.742Z,17.20
2023-01-27T12:46:29.140Z,14.82
2023-01-27T12:49:10.153Z,14.38
2023-01-27T12:51:48.446Z,15.25
2023-01-27T12:54:21.731Z,18.37
2023-01-27T12:56:50.131Z,16.48
2023-01-27T12:59:19.010Z,13.40
2023-01-27T13:02:01.631Z,16.15
2023-01-27T13:04:29.149Z,17.58
2023-01-27T13:07:07.204Z,11.77
2023-01-27T13:10:16.630Z,16.38
2023-01-27T13:13:02.411Z,18.23
2023-01-27T13:15:31.151Z,15.70
2023-01-27T13:18:13.202Z,18.25
2023-01-27T13:20:46.589Z,12.63
2023-01-27T13:23:21.236Z,18.02
2023-01-27T13:26:00.901Z,16.90
2023-01-27T13:28:53.528Z,18.77
2023-01-27T13:31:53.515Z,17.88
2023-01-27T13:34:49.241Z,18.27
2023-01-27T13:37:19.014Z,13.55
2023-01-27T13:39:54.989Z,16.55
2023-01-27T13:42:51.766Z,18.52
2023-01-27T13:45:22.095Z,14.23
2023-01-27T13:47:58.869Z,16.40
2023-01-27T13:50:31.264Z,14.50
2023-01-27T13:52:59.636Z,13.82
2023-01-27T13:55:51.395Z,16.63
2023-01-27T13:58:30.257Z,12.45
2023-01-27T14:01:18.029Z,13.93
2023-01-27T14:04:06.891Z,18.65
2023-01-27T14:06:52.516Z,16.10
2023-01-27T14:09:44.866Z,10.32
2023-01-27T14:12:34.223Z,12.52
2023-01-27T14:15:27.390Z,9.97
2023-01-27T14:17:56.812Z,10.55
2023-01-27T14:20:38.666Z,12.82
2023-01-27T14:23:44.529Z,14.57
2023-01-27T14:26:37.801Z,12.70
2023-01-27T14:29:38.272Z,10.60
2023-01-27T14:32:11.046Z,12.73
2023-01-27T14:34:53.386Z,13.23
2023-01-27T14:37:28.745Z,12.15
2023-01-27T14:40:17.853Z,16.55
2023-01-27T14:43:03.212Z,13.37
2023-01-27T14:45:36.899Z,11.13
2023-01-27T14:48:29.416Z,13.75
2023-01-27T14:51:07.449Z,15.75
2023-01-27T14:53:51.964Z,10.38
2023-01-27T14:56:22.105Z,11.33
2023-01-27T14:59:23.006Z,11.50
2023-01-27T15:02:03.072Z,13.93
2023-01-27T15:04:45.007Z,12.90
2023-01-27T15:07:38.850Z,13.27
2023-01-27T15:10:27.649Z,11.03
2023-01-27T15:12:57.304Z,11.68
2023-01-27T15:15:36.764Z,9.05
2023-01-27T15:18:22.326Z,10.73
2023-01-27T15:21:02.570Z,13.25
2023-01-27T15:23:38.608Z,15.37
2023-01-27T15:26:07.592Z,13.50
2023-01-27T15:28:38.849Z,12.25
2023-01-27T15:31:15.076Z,11.52
2023-01-27T15:33:48.383Z,11.30
2023-01-27T15:36:29.894Z,11.97
2023-01-27T15:39:09.096Z,9.90
2023-01-27T15:42:16.454Z,10.77
2023-01-27T15:44:59.828Z,9.32
2023-01-27T15:47:29.911Z,15.32
2023-01-27T15:50:19.916Z,11.27
2023-01-27T15:52:49.195Z,9.77
2023-01-27T15:55:34.457Z,11.80
2023-01-27T15:58:10.271Z,16.10
2023-01-27T16:00:39.520Z,11.77
2023-01-27T16:03:22.659Z,14.20
2023-01-27T16:05:52.217Z,10.73
2023-01-27T16:08:20.053Z,16.20
2023-01-27T16:10:47.199Z,11.20
2023-01-27T16:13:30.208Z,15.73
2023-01-27T16:16:18.874Z,13.40
2023-01-27T16:18:49.375Z,12.20
2023-01-27T16:21:49.668Z,16.73
2023-01-27T16:24:25.091Z,12.65
2023-01-27T16:27:08.733Z,12.70
2023-01-27T16:29:42.550Z,13.67
2023-01-27T16:32:21.002Z,13.90
2023-01-27T16:34:55.757Z,11.98
2023-01-27T16:37:28.355Z,16.10
2023-01-27T16:40:15.029Z,14.70
2023-01-27T16:43:03.362Z,15.23
2023-01-27T16:45:40.558Z,16.77
2023-01-27T16:48:27.867Z,13.52
2023-01-27T16:51:06.257Z,14.35
2023-01-27T16:53:33.444Z,19.50
2023-01-27T16:56:03.639Z,21.90
2023-01-27T16:58:45.553Z,14.43
2023-01-27T17:01:27.269Z,14.15
2023-01-27T17:04:00.640Z,17.13
2023-01-27T17:06:30.862Z,16.50
2023-01-27T17:08:58.009Z,12.57
2023-01-27T17:11:29.017Z,14.48
2023-01-27T17:14:03.819Z,16.08
2023-01-27T17:16:42.313Z,13.63
2023-01-27T17:19:24.188Z,13.52
2023-01-27T17:22:04.239Z,15.40
2023-01-27T17:24:33.760Z,15.13
2023-01-27T17:27:01.760Z,16.67
2023-01-27T17:29:35.729Z,18.08
2023-01-27T17:32:04.459Z,18.83
2023-01-27T17:34:32.632Z,18.97
2023-01-27T17:37:31.643Z,13.82
2023-01-27T17:40:01.058Z,19.30
2023-01-27T17:42:32.799Z,17.90
2023-01-27T17:45:27.653Z,14.65
2023-01-27T17:47:58.401Z,16.83
2023-01-27T17:50:30.723Z,14.07
2023-01-27T17:53:00.168Z,12.73
2023-01-27T17:55:29.774Z,13.02
2023-01-27T17:58:05.099Z,17.73
2023-01-27T18:00:35.511Z,13.93
2023-01-27T18:03:05.058Z,13.55
2023-01-27T18:05:32.974Z,14.90
2023-01-27T18:08:00.615Z,11.90
2023-01-27T18:10:38.019Z,18.98
2023-01-27T18:13:20.082Z,13.07
2023-01-27T18:15:49.452Z,12.90
2023-01-27T18:18:19.346Z,17.23
2023-01-27T18:21:11.232Z,19.08
2023-01-27T18:23:48.271Z,13.15
2023-01-27T18:26:25.043Z,9.97
2023-01-27T18:28:57.263Z,9.15
2023-01-27T18:31:26.389Z,9.25
2023-01-27T18:34:00.544Z,11.15
2023-01-27T18:36:35.503Z,5.85
2023-01-27T18:39:04.524Z,8.30
2023-01-27T18:41:38.040Z,12.07
2023-01-27T18:44:05.209Z,8.10
2023-01-27T18:46:32.258Z,8.13
2023-01-27T18:48:59.938Z,9.10
2023-01-27T18:51:27.177Z,9.27
2023-01-27T18:53:54.257Z,11.82
2023-01-27T18:56:21.621Z,8.50
2023-01-27T18:58:48.674Z,11.18
2023-01-27T19:01:21.885Z,13.40
2023-01-27T19:03:50.791Z,11.77
2023-01-27T19:06:18.302Z,13.45
2023-01-27T19:08:45.436Z,11.80
2023-01-27T19:11:15.903Z,21.17
2023-01-27T19:13:46.432Z,14.10
2023-01-27T19:16:15.384Z,14.57
2023-01-27T19:18:43.031Z,12.60
2023-01-27T19:21:15.049Z,13.57
2023-01-27T19:23:44.468Z,13.65
2023-01-27T19:26:16.571Z,13.82
2023-01-27T19:28:44.206Z,15.63
2023-01-27T19:31:11.375Z,16.38
2023-01-27T19:33:38.923Z,13.63
2023-01-27T19:36:15.808Z,17.20
2023-01-27T19:38:42.979Z,18.73
2023-01-27T19:41:10.942Z,16.10
2023-01-27T19:43:38.141Z,19.45
2023-01-27T19:46:16.520Z,16.85
2023-01-27T19:48:44.565Z,15.30
2023-01-27T19:51:11.843Z,19.33
2023-01-27T19:53:38.970Z,23.87
2023-01-27T19:56:29.224Z,14.82
2023-01-27T19:58:56.296Z,20.42
2023-01-27T20:01:24.961Z,20.67
2023-01-27T20:03:52.633Z,20.92
2023-01-27T20:06:25.206Z,19.50
2023-01-27T20:08:56.174Z,19.17
2023-01-27T20:11:43.323Z,16.60
2023-01-27T20:14:15.768Z,17.88
2023-01-27T20:16:43.117Z,19.73
2023-01-27T20:19:14.857Z,22.03
2023-01-27T20:21:43.262Z,21.88
2023-01-27T20:24:18.356Z,19.13
2023-01-27T20:26:45.790Z,21.55
2023-01-27T20:29:13.992Z,21.00
2023-01-27T20:31:41.257Z,22.63
2023-01-27T20:34:08.466Z,19.70
2023-01-27T20:36:35.629Z,21.58
2023-01-27T20:39:04.559Z,24.55
2023-01-27T20:41:31.610Z,21.25
2023-01-27T20:44:01.582Z,23.73
2023-01-27T20:46:29.775Z,16.65
2023-01-27T20:48:58.635Z,23.20
2023-01-27T20:51:25.746Z,20.60
2023-01-27T20:53:53.547Z,19.08
2023-01-27T20:56:22.672Z,20.60
2023-01-27T20:58:50.597Z,21.88
2023-01-27T21:01:22.651Z,21.95
2023-01-27T21:03:50.563Z,24.33
2023-01-27T21:06:19.899Z,23.60
2023-01-27T21:08:50.536Z,23.70
2023-01-27T21:11:19.678Z,21.73
2023-01-27T21:13:47.742Z,22.13
2023-01-27T21:16:15.239Z,24.02
2023-01-27T21:18:42.443Z,21.67
2023-01-27T21:21:21.349Z,22.07
2023-01-27T21:23:48.419Z,24.88
2023-01-27T21:26:15.444Z,22.67
2023-01-27T21:28:42.534Z,25.83
2023-01-27T21:31:12.146Z,23.98
2023-01-27T21:33:39.834Z,26.27
2023-01-27T21:36:10.618Z,24.52
2023-01-27T21:38:38.874Z,22.15
2023-01-27T21:41:07.785Z,26.15
2023-01-27T21:43:54.213Z,29.02
2023-01-27T21:46:21.316Z,24.87
2023-01-27T21:48:48.685Z,21.88
2023-01-27T21:51:15.894Z,25.73
2023-01-27T21:53:42.957Z,24.67
2023-01-27T21:56:10.896Z,24.42
2023-01-27T21:58:38.006Z,23.53
2023-01-27T22:01:09.624Z,23.48
2023-01-27T22:03:37.748Z,24.73
2023-01-27T22:06:08.835Z,21.20
2023-01-27T22:08:36.405Z,21.63
2023-01-27T22:11:11.690Z,22.47
2023-01-27T22:13:39.577Z,23.73
2023-01-27T22:16:07.264Z,24.00
2023-01-27T22:18:34.338Z,22.88
2023-01-27T22:21:02.237Z,21.20
2023-01-27T22:23:29.356Z,24.07
2023-01-27T22:25:56.439Z,19.80
2023-01-27T22:28:24.322Z,21.30
2023-01-27T22:30:51.748Z,23.35
2023-01-27T22:33:19.090Z,21.55
2023-01-27T22:35:46.176Z,20.43
2023-01-27T22:38:13.404Z,23.52
2023-01-27T22:40:40.430Z,22.02
2023-01-27T22:43:10.646Z,20.75
2023-01-27T22:45:38.784Z,20.85
2023-01-27T22:48:06.072Z,16.83
2023-01-27T22:50:33.127Z,16.40
2023-01-27T22:53:00.281Z,18.75
2023-01-27T22:55:27.333Z,19.50
2023-01-27T22:57:54.378Z,22.05
2023-01-27T23:00:21.477Z,23.93
2023-01-27T23:02:48.520Z,22.15
2023-01-27T23:05:16.091Z,21.27
2023-01-27T23:07:43.391Z,24.85
2023-01-27T23:10:10.766Z,18.88
2023-01-27T23:12:37.787Z,19.87
2023-01-27T23:15:05.348Z,24.85
2023-01-27T23:17:32.403Z,23.08
2023-01-27T23:19:59.458Z,20.10
2023-01-27T23:22:26.546Z,29.48
2023-01-27T23:24:53.645Z,21.27
2023-01-27T23:27:20.721Z,21.27
2023-01-27T23:29:47.746Z,20.50
2023-01-27T23:32:14.801Z,18.13
2023-01-27T23:34:41.936Z,20.40
2023-01-27T23:37:08.964Z,23.23
2023-01-27T23:39:36.038Z,18.60
2023-01-27T23:42:03.136Z,20.63
2023-01-27T23:44:30.328Z,19.42
2023-01-27T23:46:57.445Z,18.45
2023-01-27T23:49:24.531Z,24.10
2023-01-27T23:51:51.652Z,18.90
2023-01-27T23:54:18.779Z,19.25
2023-01-27T23:56:45.896Z,19.15
2023-01-27T23:59:13.272Z,18.27
